createdAt,value
2022-10-08T00:01:17.511Z,55.31
2022-10-08T00:03:50.540Z,55.60
2022-10-08T00:06:29.689Z,55.94
2022-10-08T00:09:03.382Z,56.55
2022-10-08T00:11:38.872Z,57.12
2022-10-08T00:14:11.966Z,56.84
2022-10-08T00:16:43.603Z,60.80
2022-10-08T00:19:16.381Z,61.50
2022-10-08T00:21:47.641Z,64.99
2022-10-08T00:24:20.077Z,67.61
2022-10-08T00:26:51.173Z,67.41
2022-10-08T00:29:24.040Z,70.50
2022-10-08T00:31:54.532Z,70.45
2022-10-08T00:34:25.763Z,68.37
2022-10-08T00:36:57.456Z,70.96
2022-10-08T00:39:28.002Z,69.53
2022-10-08T00:41:58.594Z,71.04
2022-10-08T00:44:56.177Z,72.47
2022-10-08T00:47:41.772Z,72.20
2022-10-08T00:50:35.823Z,67.64
2022-10-08T00:53:09.550Z,65.91
2022-10-08T00:55:43.980Z,65.40
2022-10-08T00:58:19.992Z,65.23
2022-10-08T01:00:51.477Z,65.25
2022-10-08T01:03:22.107Z,64.93
2022-10-08T01:05:59.538Z,65.36
2022-10-08T01:08:40.488Z,64.91
2022-10-08T01:11:25.256Z,64.78
2022-10-08T01:14:08.481Z,64.77
2022-10-08T01:17:04.178Z,65.20
2022-10-08T01:19:43.535Z,65.52
2022-10-08T01:22:50.845Z,65.64
2022-10-08T01:25:43.737Z,65.92
2022-10-08T01:28:43.902Z,66.44
2022-10-08T01:31:42.157Z,70.79
2022-10-08T01:34:25.881Z,71.31
2022-10-08T01:37:00.828Z,71.63
2022-10-08T01:39:36.197Z,71.92
2022-10-08T01:42:10.979Z,72.24
2022-10-08T01:44:52.902Z,72.15
2022-10-08T01:47:26.020Z,72.32
2022-10-08T01:50:13.947Z,72.28
2022-10-08T01:52:59.969Z,69.50
2022-10-08T01:55:36.996Z,68.71
2022-10-08T01:58:17.445Z,68.10
2022-10-08T02:00:54.063Z,68.15
2022-10-08T02:03:24.930Z,67.59
2022-10-08T02:05:57.160Z,67.85
2022-10-08T02:08:28.585Z,68.87
2022-10-08T02:10:59.177Z,68.22
2022-10-08T02:13:31.510Z,68.09
2022-10-08T02:16:12.240Z,67.79
2022-10-08T02:18:50.747Z,67.99
2022-10-08T02:21:28.892Z,68.04
2022-10-08T02:24:21.227Z,67.90
2022-10-08T02:27:00.312Z,67.71
2022-10-08T02:29:39.455Z,67.83
2022-10-08T02:32:13.356Z,68.13
2022-10-08T02:34:51.887Z,67.91
2022-10-08T02:37:33.711Z,68.25
2022-10-08T02:40:12.203Z,67.89
2022-10-08T02:42:48.177Z,67.92
2022-10-08T02:45:32.719Z,68.17
2022-10-08T02:48:09.849Z,68.04
2022-10-08T02:50:44.084Z,68.39
2022-10-08T02:53:19.364Z,68.14
2022-10-08T02:56:08.650Z,68.64
2022-10-08T02:58:39.482Z,68.29
2022-10-08T03:01:45.039Z,68.65
2022-10-08T03:04:40.469Z,68.84
2022-10-08T03:07:13.465Z,68.24
2022-10-08T03:09:49.474Z,68.58
2022-10-08T03:12:21.502Z,68.38
2022-10-08T03:14:53.461Z,68.35
2022-10-08T03:17:31.736Z,69.73
2022-10-08T03:20:07.806Z,68.18
2022-10-08T03:22:38.704Z,68.49
2022-10-08T03:25:11.071Z,68.67
2022-10-08T03:27:41.662Z,68.13
2022-10-08T03:30:13.073Z,68.57
2022-10-08T03:32:43.938Z,68.57
2022-10-08T03:35:14.730Z,68.39
2022-10-08T03:37:45.461Z,68.16
2022-10-08T03:40:16.429Z,68.53
2022-10-08T03:42:47.335Z,70.53
2022-10-08T03:45:18.272Z,70.99
2022-10-08T03:47:54.597Z,71.51
2022-10-08T03:50:25.185Z,71.99
2022-10-08T03:52:56.965Z,72.13
2022-10-08T03:55:27.715Z,72.70
2022-10-08T03:57:58.332Z,72.78
2022-10-08T04:00:28.971Z,73.17
2022-10-08T04:02:59.655Z,72.93
2022-10-08T04:05:30.430Z,73.07
2022-10-08T04:08:01.234Z,73.24
2022-10-08T04:10:33.963Z,73.21
2022-10-08T04:13:07.164Z,73.75
2022-10-08T04:15:39.049Z,73.90
2022-10-08T04:18:13.990Z,73.96
2022-10-08T04:20:45.819Z,74.07
2022-10-08T04:23:18.704Z,73.81
2022-10-08T04:25:52.876Z,74.69
2022-10-08T04:28:24.194Z,75.03
2022-10-08T04:31:07.314Z,74.69
2022-10-08T04:33:39.087Z,75.43
2022-10-08T04:36:16.037Z,75.43
2022-10-08T04:38:49.244Z,75.85
2022-10-08T04:41:26.595Z,75.66
2022-10-08T04:44:32.331Z,75.63
2022-10-08T04:47:05.939Z,76.33
2022-10-08T04:49:36.633Z,75.90
2022-10-08T04:52:08.102Z,76.14
2022-10-08T04:54:38.784Z,76.26
2022-10-08T04:57:09.316Z,76.70
2022-10-08T04:59:59.465Z,76.36
2022-10-08T05:02:30.528Z,76.48
2022-10-08T05:05:01.180Z,76.34
2022-10-08T05:07:31.618Z,75.76
2022-10-08T05:10:02.580Z,74.16
2022-10-08T05:12:32.982Z,73.11
2022-10-08T05:15:04.135Z,71.65
2022-10-08T05:17:34.619Z,70.95
2022-10-08T05:20:05.337Z,70.05
2022-10-08T05:22:35.712Z,68.82
2022-10-08T05:25:06.469Z,68.41
2022-10-08T05:27:37.147Z,67.13
2022-10-08T05:30:08.374Z,66.90
2022-10-08T05:32:39.406Z,65.76
2022-10-08T05:35:10.172Z,65.17
2022-10-08T05:37:40.725Z,64.70
2022-10-08T05:40:11.728Z,64.03
2022-10-08T05:42:42.087Z,64.41
2022-10-08T05:45:13.225Z,63.42
2022-10-08T05:47:44.043Z,63.76
2022-10-08T05:50:14.565Z,63.06
2022-10-08T05:52:45.345Z,62.76
2022-10-08T05:55:18.430Z,62.02
2022-10-08T05:57:48.830Z,61.59
2022-10-08T06:00:19.204Z,61.80
2022-10-08T06:02:51.688Z,60.95
2022-10-08T06:05:22.253Z,60.81
2022-10-08T06:07:53.946Z,61.09
2022-10-08T06:10:27.358Z,60.27
2022-10-08T06:12:58.138Z,60.57
2022-10-08T06:15:28.438Z,60.08
2022-10-08T06:17:59.511Z,59.83
2022-10-08T06:20:31.968Z,59.20
2022-10-08T06:23:02.730Z,59.56
2022-10-08T06:25:33.129Z,59.25
2022-10-08T06:28:03.455Z,58.78
2022-10-08T06:30:33.954Z,58.49
2022-10-08T06:33:04.370Z,57.82
2022-10-08T06:35:35.177Z,58.05
2022-10-08T06:38:06.176Z,59.10
2022-10-08T06:40:41.179Z,59.83
2022-10-08T06:43:16.394Z,59.06
2022-10-08T06:45:48.150Z,58.74
2022-10-08T06:48:18.645Z,58.64
2022-10-08T06:50:49.031Z,58.40
2022-10-08T06:53:19.385Z,58.34
2022-10-08T06:55:49.840Z,58.13
2022-10-08T06:58:20.211Z,57.36
2022-10-08T07:00:50.925Z,57.11
2022-10-08T07:03:21.471Z,56.85
2022-10-08T07:05:51.919Z,57.19
2022-10-08T07:08:22.272Z,57.02
2022-10-08T07:10:53.054Z,56.52
2022-10-08T07:13:23.685Z,56.64
2022-10-08T07:15:54.470Z,56.30
2022-10-08T07:18:27.158Z,55.69
2022-10-08T07:20:59.150Z,55.91
2022-10-08T07:23:30.257Z,55.63
2022-10-08T07:26:04.756Z,54.96
2022-10-08T07:28:38.630Z,56.24
2022-10-08T07:31:15.648Z,62.80
2022-10-08T07:33:46.398Z,66.77
2022-10-08T07:36:21.976Z,68.54
2022-10-08T07:39:04.525Z,69.61
2022-10-08T07:41:35.875Z,70.43
2022-10-08T07:44:07.436Z,71.23
2022-10-08T07:46:39.425Z,72.14
2022-10-08T07:49:09.806Z,72.54
2022-10-08T07:51:40.560Z,72.13
2022-10-08T07:54:15.447Z,73.22
2022-10-08T07:56:47.004Z,73.22
2022-10-08T07:59:17.566Z,73.43
2022-10-08T08:01:48.617Z,74.42
2022-10-08T08:04:19.172Z,74.71
2022-10-08T08:06:49.778Z,74.88
2022-10-08T08:09:20.849Z,75.22
2022-10-08T08:11:51.432Z,75.73
2022-10-08T08:14:22.569Z,75.73
2022-10-08T08:16:53.142Z,76.70
2022-10-08T08:19:25.203Z,76.57
2022-10-08T08:21:56.006Z,76.72
2022-10-08T08:24:26.552Z,77.42
2022-10-08T08:26:57.881Z,77.48
2022-10-08T08:29:28.351Z,77.81
2022-10-08T08:31:59.159Z,78.22
2022-10-08T08:34:29.848Z,77.92
2022-10-08T08:37:01.454Z,78.57
2022-10-08T08:39:32.867Z,78.70
2022-10-08T08:42:24.532Z,78.49
2022-10-08T08:45:28.189Z,78.66
2022-10-08T08:48:12.998Z,79.13
2022-10-08T08:50:48.742Z,79.33
2022-10-08T08:53:21.131Z,79.74
2022-10-08T08:55:55.031Z,80.94
2022-10-08T08:58:43.579Z,79.91
2022-10-08T09:01:16.844Z,80.44
2022-10-08T09:04:04.894Z,80.60
2022-10-08T09:06:38.161Z,80.55
2022-10-08T09:09:28.457Z,80.69
2022-10-08T09:11:59.496Z,80.54
2022-10-08T09:14:42.012Z,80.88
2022-10-08T09:17:40.181Z,80.67
2022-10-08T09:20:17.163Z,80.65
2022-10-08T09:22:50.469Z,80.77
2022-10-08T09:25:32.227Z,80.30
2022-10-08T09:28:05.794Z,80.28
2022-10-08T09:30:45.792Z,80.76
2022-10-08T09:33:19.672Z,80.30
2022-10-08T09:35:59.668Z,80.66
2022-10-08T09:38:36.126Z,80.98
2022-10-08T09:41:19.607Z,80.76
2022-10-08T09:44:09.681Z,81.09
2022-10-08T09:46:40.296Z,78.18
2022-10-08T09:49:28.975Z,78.24
2022-10-08T09:52:03.751Z,77.54
2022-10-08T09:54:43.914Z,77.55
2022-10-08T09:57:21.844Z,76.73
2022-10-08T09:59:59.879Z,77.06
2022-10-08T10:02:38.739Z,76.21
2022-10-08T10:05:23.958Z,76.35
2022-10-08T10:07:55.623Z,76.24
2022-10-08T10:10:49.968Z,76.78
2022-10-08T10:13:25.267Z,76.23
2022-10-08T10:16:03.984Z,75.97
2022-10-08T10:18:49.536Z,75.85
2022-10-08T10:24:29.352Z,76.36
2022-10-08T10:27:08.978Z,76.17
2022-10-08T10:30:16.854Z,78.40
2022-10-08T10:32:57.656Z,78.85
2022-10-08T10:35:33.828Z,79.28
2022-10-08T10:38:28.844Z,79.58
2022-10-08T10:41:07.748Z,79.57
2022-10-08T10:43:52.115Z,79.78
2022-10-08T10:46:42.963Z,79.82
2022-10-08T10:49:17.890Z,79.98
2022-10-08T10:52:06.433Z,80.22
2022-10-08T10:54:45.985Z,79.59
2022-10-08T10:57:41.021Z,79.78
2022-10-08T11:00:25.135Z,80.16
2022-10-08T11:03:24.238Z,79.94
2022-10-08T11:06:23.659Z,80.26
2022-10-08T11:09:02.862Z,80.08
2022-10-08T11:12:17.402Z,80.56
2022-10-08T11:14:50.493Z,80.42
2022-10-08T11:17:35.036Z,80.32
2022-10-08T11:20:39.188Z,80.59
2022-10-08T11:23:47.865Z,80.43
2022-10-08T11:26:34.114Z,80.55
2022-10-08T11:29:32.837Z,81.06
2022-10-08T11:32:04.641Z,80.74
2022-10-08T11:34:37.972Z,81.81
2022-10-08T11:37:20.514Z,81.74
2022-10-08T11:40:20.037Z,81.76
2022-10-08T11:43:07.632Z,79.66
2022-10-08T11:45:41.197Z,81.30
2022-10-08T11:48:32.779Z,81.33
2022-10-08T11:51:21.653Z,81.43
2022-10-08T11:54:33.144Z,81.35
2022-10-08T11:58:06.554Z,81.59
2022-10-08T12:00:38.567Z,81.33
2022-10-08T12:03:43.827Z,81.16
2022-10-08T12:06:25.181Z,80.99
2022-10-08T12:09:04.566Z,81.06
2022-10-08T12:11:40.834Z,81.00
2022-10-08T12:14:17.903Z,81.24
2022-10-08T12:16:56.882Z,81.39
2022-10-08T12:19:36.702Z,81.09
2022-10-08T12:22:16.351Z,80.88
2022-10-08T12:24:50.246Z,81.13
2022-10-08T12:27:23.764Z,81.64
2022-10-08T12:30:13.765Z,81.23
2022-10-08T12:32:45.003Z,81.74
2022-10-08T12:35:32.013Z,82.57
2022-10-08T12:38:17.443Z,82.14
2022-10-08T12:40:50.626Z,82.54
2022-10-08T12:43:45.417Z,82.10
2022-10-08T12:46:24.942Z,81.98
2022-10-08T12:49:13.490Z,82.13
2022-10-08T12:51:49.798Z,82.54
2022-10-08T12:54:26.339Z,82.46
2022-10-08T12:56:57.373Z,82.40
2022-10-08T12:59:33.604Z,82.12
2022-10-08T13:02:04.232Z,82.46
2022-10-08T13:04:35.964Z,82.81
2022-10-08T13:07:26.235Z,82.65
2022-10-08T13:09:59.395Z,82.78
2022-10-08T13:12:31.157Z,83.14
2022-10-08T13:15:06.865Z,82.84
2022-10-08T13:17:39.332Z,83.40
2022-10-08T13:20:12.926Z,83.93
2022-10-08T13:22:43.661Z,83.99
2022-10-08T13:25:44.207Z,83.91
2022-10-08T13:28:41.642Z,83.48
2022-10-08T13:31:25.149Z,83.97
2022-10-08T13:33:55.862Z,83.23
2022-10-08T13:36:26.526Z,83.34
2022-10-08T13:38:57.056Z,83.41
2022-10-08T13:41:29.291Z,83.27
2022-10-08T13:44:00.405Z,83.36
2022-10-08T13:46:31.555Z,82.67
2022-10-08T13:49:02.121Z,82.47
2022-10-08T13:51:32.734Z,82.32
2022-10-08T13:54:03.463Z,80.39
2022-10-08T13:56:34.640Z,79.13
2022-10-08T13:59:08.974Z,78.31
2022-10-08T14:01:40.173Z,77.06
2022-10-08T14:04:11.052Z,75.68
2022-10-08T14:06:44.084Z,74.92
2022-10-08T14:09:19.273Z,73.50
2022-10-08T14:11:56.598Z,72.86
2022-10-08T14:14:28.645Z,71.89
2022-10-08T14:16:59.100Z,71.58
2022-10-08T14:19:30.074Z,70.43
2022-10-08T14:22:01.396Z,69.72
2022-10-08T14:24:32.124Z,70.29
2022-10-08T14:27:07.451Z,68.22
2022-10-08T14:29:38.936Z,67.97
2022-10-08T14:32:11.216Z,67.21
2022-10-08T14:34:41.765Z,66.53
2022-10-08T14:37:13.518Z,65.83
2022-10-08T14:39:44.967Z,65.99
2022-10-08T14:42:15.672Z,64.50
2022-10-08T14:44:48.829Z,64.14
2022-10-08T14:47:19.351Z,65.96
2022-10-08T14:49:49.876Z,63.94
2022-10-08T14:52:22.071Z,63.62
2022-10-08T14:54:52.837Z,64.40
2022-10-08T14:57:23.735Z,63.26
2022-10-08T14:59:54.229Z,63.27
2022-10-08T15:02:24.753Z,64.23
2022-10-08T15:04:55.846Z,63.75
2022-10-08T15:07:26.310Z,62.95
2022-10-08T15:09:56.858Z,61.65
2022-10-08T15:12:27.920Z,62.64
2022-10-08T15:14:58.450Z,61.67
2022-10-08T15:17:29.065Z,61.46
2022-10-08T15:20:00.596Z,61.78
2022-10-08T15:22:31.042Z,60.57
2022-10-08T15:25:01.441Z,59.88
2022-10-08T15:27:32.148Z,59.09
2022-10-08T15:30:02.557Z,59.85
2022-10-08T15:32:33.026Z,59.26
2022-10-08T15:35:03.461Z,60.75
2022-10-08T15:37:33.887Z,60.08
2022-10-08T15:40:04.390Z,58.82
2022-10-08T15:42:34.936Z,60.26
2022-10-08T15:45:06.000Z,58.46
2022-10-08T15:47:36.618Z,58.75
2022-10-08T15:50:07.456Z,57.77
2022-10-08T15:52:37.913Z,59.32
2022-10-08T15:55:09.199Z,57.26
2022-10-08T15:57:39.615Z,57.74
2022-10-08T16:00:10.637Z,56.86
2022-10-08T16:02:44.028Z,56.78
2022-10-08T16:05:23.008Z,56.90
2022-10-08T16:07:53.367Z,56.88
2022-10-08T16:10:23.807Z,58.59
2022-10-08T16:12:54.231Z,56.34
2022-10-08T16:15:24.714Z,57.55
2022-10-08T16:17:55.094Z,55.95
2022-10-08T16:20:25.583Z,56.88
2022-10-08T16:22:56.487Z,55.77
2022-10-08T16:25:26.859Z,55.39
2022-10-08T16:27:57.533Z,55.75
2022-10-08T16:30:29.158Z,54.70
2022-10-08T16:32:59.613Z,57.68
2022-10-08T16:35:30.101Z,57.93
2022-10-08T16:38:00.513Z,57.74
2022-10-08T16:40:30.910Z,57.02
2022-10-08T16:43:01.542Z,57.61
2022-10-08T16:45:37.525Z,56.01
2022-10-08T16:48:09.431Z,56.78
2022-10-08T16:50:41.472Z,57.48
2022-10-08T16:53:12.163Z,56.62
2022-10-08T16:55:42.888Z,57.05
2022-10-08T16:58:13.315Z,56.58
2022-10-08T17:00:44.000Z,56.52
2022-10-08T17:03:15.288Z,55.93
2022-10-08T17:05:45.611Z,56.12
2022-10-08T17:08:16.781Z,55.60
2022-10-08T17:10:47.238Z,56.08
2022-10-08T17:13:17.735Z,55.45
2022-10-08T17:15:59.499Z,53.94
2022-10-08T17:18:31.030Z,54.99
2022-10-08T17:21:02.950Z,54.99
2022-10-08T17:23:37.880Z,54.90
2022-10-08T17:26:14.069Z,54.08
2022-10-08T17:28:47.938Z,54.66
2022-10-08T17:31:24.250Z,53.71
2022-10-08T17:33:55.101Z,54.37
2022-10-08T17:36:28.487Z,54.54
2022-10-08T17:39:01.100Z,54.55
2022-10-08T17:41:36.781Z,52.63
2022-10-08T17:44:09.670Z,54.07
2022-10-08T17:46:46.900Z,53.67
2022-10-08T17:49:19.717Z,53.78
2022-10-08T17:51:51.949Z,53.83
2022-10-08T17:54:21.919Z,52.19
2022-10-08T17:56:52.977Z,53.50
2022-10-08T17:59:26.491Z,53.32
2022-10-08T18:01:57.072Z,53.46
2022-10-08T18:04:27.490Z,53.28
2022-10-08T18:07:03.145Z,53.34
2022-10-08T18:09:34.543Z,52.83
2022-10-08T18:12:04.998Z,53.38
2022-10-08T18:14:35.766Z,52.83
2022-10-08T18:17:06.220Z,52.92
2022-10-08T18:19:36.649Z,52.55
2022-10-08T18:22:07.027Z,53.02
2022-10-08T18:24:37.941Z,52.82
2022-10-08T18:27:08.320Z,52.81
2022-10-08T18:29:38.819Z,52.37
2022-10-08T18:32:09.242Z,52.37
2022-10-08T18:34:39.578Z,52.22
2022-10-08T18:37:10.197Z,52.20
2022-10-08T18:39:40.522Z,52.35
2022-10-08T18:42:10.918Z,51.99
2022-10-08T18:44:41.332Z,52.31
2022-10-08T18:47:11.799Z,51.99
2022-10-08T18:49:42.239Z,52.06
2022-10-08T18:52:12.661Z,52.03
2022-10-08T18:54:43.714Z,51.69
2022-10-08T18:57:14.051Z,51.81
2022-10-08T18:59:44.486Z,51.62
2022-10-08T19:02:14.916Z,51.59
2022-10-08T19:04:45.385Z,51.71
2022-10-08T19:07:15.896Z,51.80
2022-10-08T19:09:46.383Z,51.97
2022-10-08T19:12:16.904Z,51.62
2022-10-08T19:14:50.560Z,51.32
2022-10-08T19:17:21.065Z,51.03
2022-10-08T19:19:51.810Z,51.08
2022-10-08T19:22:22.223Z,50.89
2022-10-08T19:24:52.621Z,51.36
2022-10-08T19:27:23.069Z,51.36
2022-10-08T19:29:53.938Z,51.36
2022-10-08T19:32:24.505Z,50.96
2022-10-08T19:34:54.943Z,51.23
2022-10-08T19:37:25.535Z,51.06
2022-10-08T19:39:55.934Z,50.94
2022-10-08T19:42:26.268Z,50.63
2022-10-08T19:44:57.629Z,50.64
2022-10-08T19:47:28.069Z,50.68
2022-10-08T19:49:58.856Z,50.79
2022-10-08T19:52:29.915Z,50.80
2022-10-08T19:55:00.684Z,50.50
2022-10-08T19:57:31.579Z,50.80
2022-10-08T20:00:02.006Z,50.45
2022-10-08T20:02:33.756Z,50.01
2022-10-08T20:05:04.198Z,50.90
2022-10-08T20:07:34.516Z,50.46
2022-10-08T20:10:11.714Z,50.04
2022-10-08T20:12:42.553Z,50.17
2022-10-08T20:15:13.096Z,50.08
2022-10-08T20:17:43.541Z,49.97
2022-10-08T20:20:31.813Z,50.27
2022-10-08T20:23:21.710Z,48.90
2022-10-08T20:25:52.550Z,49.63
2022-10-08T20:28:23.096Z,49.51
2022-10-08T20:30:53.625Z,49.66
2022-10-08T20:33:24.086Z,49.84
2022-10-08T20:35:54.469Z,49.57
2022-10-08T20:38:25.151Z,49.65
2022-10-08T20:40:58.661Z,49.07
2022-10-08T20:43:30.503Z,49.20
2022-10-08T20:46:14.808Z,48.86
2022-10-08T20:48:46.753Z,49.46
2022-10-08T20:51:20.280Z,49.82
2022-10-08T20:54:00.358Z,48.27
2022-10-08T20:56:37.145Z,49.46
2022-10-08T20:59:19.443Z,48.32
2022-10-08T21:01:51.686Z,49.14
2022-10-08T21:04:22.137Z,48.45
2022-10-08T21:06:52.978Z,49.24
2022-10-08T21:09:23.985Z,48.99
2022-10-08T21:11:55.176Z,48.97
2022-10-08T21:14:25.686Z,49.25
2022-10-08T21:16:56.058Z,48.95
2022-10-08T21:19:26.986Z,48.56
2022-10-08T21:21:57.390Z,48.99
2022-10-08T21:24:28.098Z,48.69
2022-10-08T21:26:58.497Z,48.67
2022-10-08T21:29:29.229Z,49.10
2022-10-08T21:31:59.709Z,48.73
2022-10-08T21:34:30.207Z,48.69
2022-10-08T21:37:00.619Z,48.69
2022-10-08T21:39:31.055Z,48.97
2022-10-08T21:42:01.388Z,48.83
2022-10-08T21:44:31.778Z,48.80
2022-10-08T21:47:02.250Z,49.10
2022-10-08T21:49:33.100Z,48.99
2022-10-08T21:52:03.496Z,49.00
2022-10-08T21:54:34.054Z,48.69
2022-10-08T21:57:04.463Z,48.81
2022-10-08T21:59:34.817Z,48.83
2022-10-08T22:02:05.508Z,48.70
2022-10-08T22:04:36.204Z,48.90
2022-10-08T22:07:07.103Z,48.56
2022-10-08T22:09:37.539Z,48.48
2022-10-08T22:12:07.930Z,48.85
2022-10-08T22:14:38.384Z,49.40
2022-10-08T22:17:08.739Z,49.14
2022-10-08T22:19:39.140Z,49.33
2022-10-08T22:22:10.293Z,49.00
2022-10-08T22:24:40.816Z,49.28
2022-10-08T22:27:11.410Z,48.88
2022-10-08T22:29:41.745Z,48.82
2022-10-08T22:32:12.047Z,48.69
2022-10-08T22:34:42.451Z,48.81
2022-10-08T22:37:12.917Z,48.37
2022-10-08T22:39:43.278Z,48.24
2022-10-08T22:42:13.680Z,48.38
2022-10-08T22:44:43.996Z,48.46
2022-10-08T22:47:14.346Z,48.30
2022-10-08T22:49:44.961Z,48.56
2022-10-08T22:52:17.557Z,48.47
2022-10-08T22:54:48.071Z,48.43
2022-10-08T22:57:18.973Z,48.57
2022-10-08T22:59:49.451Z,48.91
2022-10-08T23:02:19.966Z,49.91
2022-10-08T23:04:50.319Z,51.22
2022-10-08T23:07:20.777Z,51.56
2022-10-08T23:09:51.273Z,52.12
2022-10-08T23:12:21.885Z,52.83
2022-10-08T23:14:52.824Z,53.49
2022-10-08T23:17:23.539Z,53.79
2022-10-08T23:19:54.042Z,54.17
2022-10-08T23:22:24.478Z,54.58
2022-10-08T23:24:55.409Z,54.63
2022-10-08T23:27:25.848Z,54.99
2022-10-08T23:29:57.234Z,55.16
2022-10-08T23:32:27.669Z,55.34
2022-10-08T23:34:58.076Z,55.68
2022-10-08T23:37:28.495Z,56.19
2022-10-08T23:39:58.890Z,55.75
2022-10-08T23:42:29.301Z,57.06
2022-10-08T23:44:59.937Z,56.90
2022-10-08T23:47:30.971Z,57.13
2022-10-08T23:50:01.355Z,62.54
2022-10-08T23:52:31.938Z,66.64
2022-10-08T23:55:02.452Z,68.10
2022-10-08T23:57:32.845Z,69.73
